New Orleans NAS, Louisiana
Current Conditions -  °F | °C
As of 4:55 PM on Friday 28 Nov 2014 (Local Time) from KNBG Reporting Station
Few Clouds Few Clouds  
Wind Chill: 54°   Ceiling: Unl
Heat Index: 54°   Visibility: 10mi
Dew Point: 42°   Wind: 6mph
Humidity: 64%   Direction: 140°SE
Pressure: 30.3"   Gusts: NA
Location:  29.83°N, 90.02°W
Report Text: KNBG 282255Z 14005KT 10SM FEW250 12/06 A3030 RMK AO2 SLP260 T01220056 $
Loading
Personal Weather Stations






























Interactive Weather Map New forecast layout! Learn more

10-Day Weather Forecast

Advertisements
Track Severe Weather on mobile